Time;durP1;ratioP1;P1;durP2;ratioP2;P2;SDS_P1;SDS_P2;PMS_P1;PMS_P2;Temp;Humidity;BMP_temperature;BMP_pressure;BME280_temperature;BME280_humidity;BME280_pressure;Samples;Min_cycle;Max_cycle;Signal;HPM_P1;HPM_P2
2022/04/30 00:00:41;;;;;;;38.53;29.50;;;;;;;5.53;100.00;99856.22;2098801;28;20193;-76
2022/04/30 00:01:42;;;;;;;39.90;29.60;;;;;;;5.51;100.00;99863.59;2098106;28;20202;-76
2022/04/30 00:02:44;;;;;;;41.27;30.60;;;;;;;5.50;100.00;99862.00;2098228;28;20225;-76
2022/04/30 00:03:48;;;;;;;51.65;31.30;;;;;;;5.53;100.00;99871.28;2098756;28;20201;-76
2022/04/30 00:04:52;;;;;;;40.47;30.30;;;;;;;5.51;100.00;99855.66;2099020;28;20178;-75
2022/04/30 00:05:54;;;;;;;42.80;28.77;;;;;;;5.51;100.00;99853.00;2098234;28;20185;-74
2022/04/30 00:06:54;;;;;;;45.00;29.45;;;;;;;5.52;100.00;99862.53;2098078;28;20578;-76
2022/04/30 00:07:56;;;;;;;41.93;28.30;;;;;;;5.55;100.00;99861.25;2098308;28;20209;-76
2022/04/30 00:08:58;;;;;;;41.58;28.27;;;;;;;5.51;100.00;99855.66;2098726;28;20247;-75
2022/04/30 00:10:01;;;;;;;39.83;28.88;;;;;;;5.49;100.00;99860.41;2098725;28;20260;-75
2022/04/30 00:11:04;;;;;;;37.25;29.30;;;;;;;5.46;100.00;99860.84;2098743;28;20239;-76
2022/04/30 00:12:05;;;;;;;41.58;28.88;;;;;;;5.43;100.00;99860.56;2098934;28;20201;-76
2022/04/30 00:13:10;;;;;;;38.40;28.87;;;;;;;5.43;100.00;99865.84;2098832;28;20666;-76
2022/04/30 00:14:13;;;;;;;37.22;29.67;;;;;;;5.39;100.00;99863.69;2099007;28;20261;-75
2022/04/30 00:15:16;;;;;;;41.80;28.88;;;;;;;5.35;100.00;99865.19;2098725;28;20182;-76
2022/04/30 00:16:18;;;;;;;38.90;28.70;;;;;;;5.31;100.00;99863.31;2097501;28;20592;-76
2022/04/30 00:17:21;;;;;;;40.10;28.83;;;;;;;5.25;100.00;99862.41;2089631;28;20199;-76
2022/04/30 00:18:25;;;;;;;44.63;29.15;;;;;;;5.21;100.00;99863.13;2098181;28;20272;-76
2022/04/30 00:19:27;;;;;;;35.85;27.50;;;;;;;5.19;100.00;99862.56;2098697;28;20710;-76
2022/04/30 00:20:27;;;;;;;45.20;30.10;;;;;;;5.17;100.00;99862.00;2098722;28;20194;-76
2022/04/30 00:21:29;;;;;;;37.17;28.57;;;;;;;5.14;100.00;99867.78;2098137;28;20253;-76
2022/04/30 00:22:30;;;;;;;41.72;28.80;;;;;;;5.10;100.00;99868.25;2098680;28;20194;-76
2022/04/30 00:23:32;;;;;;;42.50;28.60;;;;;;;5.10;100.00;99865.59;2098929;28;20236;-75
2022/04/30 00:24:35;;;;;;;46.65;29.40;;;;;;;5.08;100.00;99862.41;2098707;28;20652;-76
2022/04/30 00:25:37;;;;;;;41.92;29.88;;;;;;;5.04;100.00;99858.66;2098658;28;20236;-75
2022/04/30 00:26:38;;;;;;;42.90;29.52;;;;;;;4.97;100.00;99867.78;2098767;28;20186;-76
2022/04/30 00:27:39;;;;;;;39.80;28.77;;;;;;;4.91;100.00;99858.16;2098084;28;20194;-76
2022/04/30 00:28:41;;;;;;;35.50;28.90;;;;;;;4.89;100.00;99861.03;2089761;28;20205;-76
2022/04/30 00:29:46;;;;;;;39.33;29.17;;;;;;;4.88;100.00;99858.63;2090015;28;20206;-76
2022/04/30 00:30:48;;;;;;;37.53;28.70;;;;;;;4.86;100.00;99858.84;2098098;28;20190;-76
2022/04/30 00:31:50;;;;;;;41.33;28.38;;;;;;;4.83;100.00;99857.50;2097298;28;20230;-75
2022/04/30 00:32:53;;;;;;;37.63;28.05;;;;;;;4.81;100.00;99858.78;2089719;28;20214;-76
2022/04/30 00:33:56;;;;;;;40.70;29.05;;;;;;;4.78;100.00;99857.41;2090008;28;20194;-76
2022/04/30 00:34:57;;;;;;;41.58;29.60;;;;;;;4.77;100.00;99857.63;2098096;28;20190;-75
2022/04/30 00:35:59;;;;;;;43.63;29.83;;;;;;;4.73;100.00;99862.59;2097402;28;20225;-75
2022/04/30 00:37:02;;;;;;;42.28;29.50;;;;;;;4.69;100.00;99864.13;2089712;28;20219;-75
2022/04/30 00:38:04;;;;;;;38.70;29.15;;;;;;;4.65;100.00;99859.53;2098092;28;20197;-76
2022/04/30 00:39:05;;;;;;;38.40;29.38;;;;;;;4.63;100.00;99856.34;2098635;28;20564;-76
2022/04/30 00:40:08;;;;;;;39.60;28.75;;;;;;;4.53;100.00;99854.31;2098617;28;20193;-76
2022/04/30 00:41:10;;;;;;;39.72;29.77;;;;;;;4.59;100.00;99850.72;2098625;28;20193;-76
2022/04/30 00:42:14;;;;;;;39.67;29.23;;;;;;;4.63;100.00;99856.34;2098640;28;20182;-76
2022/04/30 00:43:14;;;;;;;38.78;28.98;;;;;;;4.60;100.00;99854.16;2097855;28;20221;-75
2022/04/30 00:44:19;;;;;;;40.73;29.27;;;;;;;4.60;100.00;99856.78;2097995;28;20200;-76
2022/04/30 00:45:22;;;;;;;41.88;29.38;;;;;;;4.59;100.00;99855.19;2098910;28;20167;-76
2022/04/30 00:46:24;;;;;;;49.35;29.05;;;;;;;4.58;100.00;99853.59;2097530;28;20660;-76
2022/04/30 00:47:26;;;;;;;39.05;28.50;;;;;;;4.57;100.00;99857.28;2098035;28;20249;-76
2022/04/30 00:48:28;;;;;;;41.13;28.98;;;;;;;4.53;100.00;99851.69;2097860;28;20194;-76
2022/04/30 00:49:29;;;;;;;39.08;29.10;;;;;;;4.52;100.00;99855.38;2097956;28;20656;-76
2022/04/30 00:50:36;;;;;;;52.97;30.77;;;;;;;4.49;100.00;99856.63;2097868;28;20667;-76
2022/04/30 00:51:39;;;;;;;41.67;29.38;;;;;;;4.49;100.00;99855.81;2097791;28;20229;-76
2022/04/30 00:52:42;;;;;;;39.53;30.38;;;;;;;4.47;100.00;99850.78;2098768;28;20193;-76
2022/04/30 00:53:46;;;;;;;43.28;29.80;;;;;;;4.46;100.00;99854.47;2098564;28;20197;-76
2022/04/30 00:54:50;;;;;;;42.00;29.92;;;;;;;4.46;100.00;99851.81;2098525;28;20190;-76
2022/04/30 00:55:50;;;;;;;43.95;31.02;;;;;;;4.45;100.00;99849.41;2098492;28;20242;-76
2022/04/30 00:56:54;;;;;;;44.53;30.23;;;;;;;4.43;100.00;99857.59;2097465;28;20226;-76
2022/04/30 00:57:57;;;;;;;42.67;29.75;;;;;;;4.44;100.00;99853.09;2089820;28;20230;-76
2022/04/30 00:59:03;;;;;;;42.80;28.83;;;;;;;4.44;100.00;99855.75;2097534;28;20198;-76
2022/04/30 01:00:05;;;;;;;40.42;29.30;;;;;;;4.43;100.00;99851.47;2098240;28;20179;-76
2022/04/30 01:01:16;;;;;;;48.90;29.35;;;;;;;4.39;100.00;99859.06;2097981;28;20193;-76
2022/04/30 01:02:51;;;;;;;38.83;28.08;;;;;;;4.36;100.00;99858.75;2077771;28;20200;-76
2022/04/30 01:04:12;;;;;;;42.45;29.35;;;;;;;4.33;100.00;99856.56;2064879;28;20208;-75
2022/04/30 01:05:14;;;;;;;45.40;29.25;;;;;;;4.30;100.00;99857.84;2091847;28;20281;-76
2022/04/30 01:06:16;;;;;;;38.50;28.23;;;;;;;4.25;100.00;99853.25;2098010;28;20728;-75
2022/04/30 01:07:18;;;;;;;38.83;29.13;;;;;;;4.24;100.00;99853.50;2097557;28;20194;-76
2022/04/30 01:08:19;;;;;;;34.83;28.48;;;;;;;4.21;100.00;99859.25;2089725;28;20290;-76
2022/04/30 01:09:23;;;;;;;35.95;28.13;;;;;;;4.18;100.00;99859.72;2089218;28;20199;-76
2022/04/30 01:10:24;;;;;;;43.70;28.83;;;;;;;4.15;100.00;99854.91;2089722;28;20780;-76
2022/04/30 01:11:25;;;;;;;35.37;27.30;;;;;;;4.15;100.00;99855.69;2098034;28;20593;-76
2022/04/30 01:12:27;;;;;;;35.05;27.85;;;;;;;4.14;100.00;99854.09;2098487;28;20247;-76
2022/04/30 01:13:30;;;;;;;40.90;29.63;;;;;;;4.08;100.00;99854.22;2097424;28;20688;-76
2022/04/30 01:14:31;;;;;;;40.17;29.80;;;;;;;4.04;100.00;99847.81;2097943;28;20195;-76
2022/04/30 01:15:33;;;;;;;53.88;30.85;;;;;;;4.04;100.00;99858.38;2097417;28;20679;-75
2022/04/30 01:16:36;;;;;;;40.20;28.48;;;;;;;4.00;100.00;99852.78;2097945;28;20734;-76
2022/04/30 01:17:39;;;;;;;42.03;29.48;;;;;;;3.98;100.00;99849.53;2098539;28;20687;-76
2022/04/30 01:18:40;;;;;;;43.33;30.35;;;;;;;3.95;100.00;99856.09;2098431;28;20277;-75
2022/04/30 01:19:43;;;;;;;40.22;29.27;;;;;;;3.95;100.00;99858.75;2097419;28;20194;-76
2022/04/30 01:20:50;;;;;;;38.45;29.73;;;;;;;3.92;100.00;99847.84;2097888;28;20684;-76
2022/04/30 01:21:52;;;;;;;44.22;30.38;;;;;;;3.91;100.00;99859.44;2097946;28;20226;-76
2022/04/30 01:23:02;;;;;;;45.17;29.60;;;;;;;3.88;100.00;99855.41;2097783;28;20268;-76
2022/04/30 01:24:04;;;;;;;39.97;29.42;;;;;;;3.89;100.00;99845.66;2097986;28;20183;-76
2022/04/30 01:25:07;;;;;;;40.97;30.38;;;;;;;3.88;100.00;99851.97;2098516;28;20236;-76
2022/04/30 01:26:09;;;;;;;43.05;31.08;;;;;;;3.87;100.00;99853.81;2097752;28;20198;-75
2022/04/30 01:27:16;;;;;;;48.50;31.42;;;;;;;3.86;100.00;99851.41;2097388;28;20197;-76
2022/04/30 01:28:17;;;;;;;40.70;29.38;;;;;;;3.86;100.00;99860.13;2098150;28;20649;-76
2022/04/30 01:29:19;;;;;;;39.15;30.63;;;;;;;3.84;100.00;99849.00;2098425;28;20221;-76
2022/04/30 01:30:22;;;;;;;36.70;28.88;;;;;;;3.81;100.00;99844.19;2098421;28;20656;-76
2022/04/30 01:38:04;;;;;;;45.85;31.15;;;;;;;3.64;100.00;99854.63;2098597;28;20175;-75
2022/04/30 01:39:05;;;;;;;42.05;29.80;;;;;;;3.67;100.00;99854.19;2097736;28;20203;-76
2022/04/30 01:40:10;;;;;;;42.25;29.98;;;;;;;3.68;100.00;99857.63;2099002;28;20196;-76
2022/04/30 01:41:12;;;;;;;40.97;30.13;;;;;;;3.66;100.00;99854.44;2099908;28;20194;-75
2022/04/30 01:42:14;;;;;;;42.85;30.88;;;;;;;3.67;100.00;99862.09;2098710;28;20194;-76
2022/04/30 01:43:16;;;;;;;42.03;30.63;;;;;;;3.67;100.00;99861.31;2090953;28;20265;-75
2022/04/30 01:44:19;;;;;;;41.50;30.05;;;;;;;3.67;100.00;99858.66;2099293;28;20193;-75
2022/04/30 01:45:20;;;;;;;46.47;30.23;;;;;;;3.68;100.00;99865.53;2099797;28;20269;-76
2022/04/30 01:46:21;;;;;;;43.30;30.60;;;;;;;3.67;100.00;99858.66;2100089;28;20186;-76
2022/04/30 01:47:23;;;;;;;52.22;30.60;;;;;;;3.69;100.00;99860.03;2099843;28;20194;-76
2022/04/30 01:48:25;;;;;;;42.53;30.45;;;;;;;3.68;100.00;99860.28;2099168;28;20281;-76
2022/04/30 01:49:26;;;;;;;45.05;31.25;;;;;;;3.70;100.00;99858.19;2099256;28;20546;-75
2022/04/30 01:50:28;;;;;;;45.87;32.47;;;;;;;3.70;100.00;99858.19;2099102;28;20330;-76
2022/04/30 01:51:29;;;;;;;46.15;31.48;;;;;;;3.70;100.00;99858.19;2098860;28;20696;-75
2022/04/30 01:52:30;;;;;;;43.77;33.83;;;;;;;3.70;100.00;99858.19;2099887;28;20621;-76
2022/04/30 01:53:34;;;;;;;47.13;31.33;;;;;;;3.69;100.00;99852.13;2099775;28;20728;-76
2022/04/30 01:54:38;;;;;;;43.47;31.17;;;;;;;3.70;100.00;99858.19;2098635;28;20628;-76
2022/04/30 01:55:40;;;;;;;44.72;32.47;;;;;;;3.69;100.00;99857.41;2099460;28;20217;-76
2022/04/30 01:56:48;;;;;;;44.72;32.42;;;;;;;3.69;100.00;99853.97;2099646;28;20190;-77
2022/04/30 01:57:53;;;;;;;47.20;32.55;;;;;;;3.67;100.00;99848.91;2091361;28;20199;-76
2022/04/30 01:58:54;;;;;;;47.95;32.80;;;;;;;3.66;100.00;99851.78;2099497;28;20194;-75
2022/04/30 01:59:56;;;;;;;40.27;30.77;;;;;;;3.64;100.00;99851.19;2099051;28;20233;-75
2022/04/30 02:00:57;;;;;;;40.50;30.65;;;;;;;3.62;100.00;99846.16;2099187;28;20190;-75
2022/04/30 02:02:02;;;;;;;43.95;32.85;;;;;;;3.60;100.00;99847.44;2099944;28;20240;-76
2022/04/30 02:03:05;;;;;;;45.22;33.63;;;;;;;3.57;100.00;99847.91;2099776;28;20190;-75
2022/04/30 02:04:06;;;;;;;51.08;34.38;;;;;;;3.56;100.00;99846.25;2099347;28;20289;-75
2022/04/30 02:05:08;;;;;;;50.72;33.92;;;;;;;3.55;100.00;99845.47;2099270;28;20757;-76
2022/04/30 02:06:10;;;;;;;49.05;34.40;;;;;;;3.54;100.00;99854.41;2099376;28;20210;-75
2022/04/30 02:07:11;;;;;;;60.05;35.50;;;;;;;3.55;100.00;99842.81;2099352;28;20194;-75
2022/04/30 02:08:15;;;;;;;48.33;34.13;;;;;;;3.56;100.00;99846.25;2090779;28;20191;-76
2022/04/30 02:09:23;;;;;;;53.15;34.63;;;;;;;3.55;100.00;99839.38;2091559;28;20225;-75
2022/04/30 02:10:25;;;;;;;46.45;30.88;;;;;;;3.57;100.00;99842.63;2099244;28;20614;-76
2022/04/30 02:11:26;;;;;;;48.03;31.77;;;;;;;3.55;100.00;99847.31;2099875;28;20277;-75
2022/04/30 02:12:31;;;;;;;44.03;31.73;;;;;;;3.47;100.00;99843.16;2099655;28;20186;-76
2022/04/30 02:13:32;;;;;;;48.38;32.47;;;;;;;3.43;100.00;99842.03;2099682;28;20186;-76
2022/04/30 02:14:37;;;;;;;51.13;33.67;;;;;;;3.40;100.00;99840.66;2099645;28;20278;-76
2022/04/30 02:15:41;;;;;;;43.67;33.33;;;;;;;3.41;100.00;99833.56;2099630;28;20163;-75
2022/04/30 02:16:44;;;;;;;48.83;34.15;;;;;;;3.38;100.00;99829.53;2099600;28;20182;-76
2022/04/30 02:17:46;;;;;;;51.83;34.85;;;;;;;3.40;100.00;99839.88;2099644;28;20197;-76
2022/04/30 02:18:50;;;;;;;54.47;35.47;;;;;;;3.36;100.00;99830.78;2099596;28;20214;-75
2022/04/30 02:21:11;;;;;;;56.60;35.65;;;;;;;3.40;100.00;99838.03;2088193;28;20236;-75
2022/04/30 02:22:14;;;;;;;53.30;36.22;;;;;;;3.43;100.00;99836.75;2099559;28;20622;-75
2022/04/30 02:23:16;;;;;;;56.75;38.00;;;;;;;3.46;100.00;99836.28;2099619;28;20210;-75
2022/04/30 02:24:19;;;;;;;55.63;38.75;;;;;;;3.49;100.00;99829.78;2099609;28;20197;-76
2022/04/30 02:25:22;;;;;;;56.05;38.83;;;;;;;3.51;100.00;99825.06;2098937;28;20233;-75
2022/04/30 02:26:25;;;;;;;53.00;36.70;;;;;;;3.55;100.00;99826.19;2099082;28;20197;-75
2022/04/30 02:27:28;;;;;;;57.40;38.50;;;;;;;3.56;100.00;99827.78;2099501;28;20656;-75
2022/04/30 02:28:29;;;;;;;57.90;38.63;;;;;;;3.59;100.00;99824.72;2098911;28;20206;-76
2022/04/30 02:29:31;;;;;;;51.83;36.30;;;;;;;3.60;100.00;99826.31;2098976;28;20236;-76
2022/04/30 02:30:35;;;;;;;54.40;36.50;;;;;;;3.62;100.00;99829.53;2099536;28;20213;-75
2022/04/30 02:31:37;;;;;;;54.60;37.00;;;;;;;3.63;100.00;99825.84;2099281;28;20191;-75
2022/04/30 02:32:39;;;;;;;54.90;37.25;;;;;;;3.66;100.00;99820.13;2098921;28;20209;-76
2022/04/30 02:33:41;;;;;;;51.03;36.88;;;;;;;3.68;100.00;99818.06;2098932;28;20674;-76
2022/04/30 02:34:42;;;;;;;56.55;37.10;;;;;;;3.70;100.00;99826.53;2098780;28;20198;-75
2022/04/30 02:35:47;;;;;;;53.90;37.50;;;;;;;3.68;100.00;99821.50;2090558;28;20202;-76
2022/04/30 02:36:50;;;;;;;58.17;38.03;;;;;;;3.68;100.00;99818.84;2098149;28;20363;-76
2022/04/30 02:37:54;;;;;;;58.00;38.30;;;;;;;3.68;100.00;99818.84;2099414;28;20218;-75
2022/04/30 02:38:55;;;;;;;56.03;36.15;;;;;;;3.67;100.00;99819.88;2099467;28;20263;-75
2022/04/30 02:39:58;;;;;;;54.05;36.75;;;;;;;3.68;100.00;99820.69;2099591;28;20186;-76
2022/04/30 02:40:59;;;;;;;56.05;36.88;;;;;;;3.68;100.00;99823.31;2099402;28;20201;-75
2022/04/30 02:42:03;;;;;;;53.03;36.57;;;;;;;3.66;100.00;99818.28;2099584;28;20186;-75
2022/04/30 02:43:09;;;;;;;54.35;37.30;;;;;;;3.66;100.00;99820.94;2099415;28;20201;-76
2022/04/30 02:44:10;;;;;;;55.45;35.60;;;;;;;3.66;100.00;99817.50;2099407;28;20202;-76
2022/04/30 02:45:12;;;;;;;52.77;36.17;;;;;;;3.70;100.00;99815.97;2099413;28;20186;-76
2022/04/30 02:46:13;;;;;;;52.55;36.63;;;;;;;3.68;100.00;99812.78;2099378;28;20201;-76
2022/04/30 02:47:15;;;;;;;53.83;36.13;;;;;;;3.66;100.00;99814.84;2098739;28;20194;-76
2022/04/30 02:48:15;;;;;;;53.50;37.08;;;;;;;3.65;100.00;99810.59;2098803;28;20802;-75
2022/04/30 02:49:18;;;;;;;57.20;37.37;;;;;;;3.65;100.00;99819.31;2099286;28;20214;-76
2022/04/30 02:50:22;;;;;;;55.60;36.83;;;;;;;3.64;100.00;99819.53;2099454;28;20243;-76
2022/04/30 02:51:24;;;;;;;55.83;37.17;;;;;;;3.62;100.00;99813.69;2098161;28;20225;-75
2022/04/30 02:52:25;;;;;;;52.00;36.20;;;;;;;3.59;100.00;99806.25;2090478;28;20195;-75
2022/04/30 02:53:27;;;;;;;56.07;36.23;;;;;;;3.57;100.00;99811.75;2098898;28;20700;-75
2022/04/30 02:54:30;;;;;;;55.33;37.50;;;;;;;3.56;100.00;99804.88;2099219;28;20193;-76
2022/04/30 02:55:36;;;;;;;56.63;36.70;;;;;;;3.54;100.00;99809.56;2099335;28;20232;-76
2022/04/30 02:56:37;;;;;;;54.33;35.80;;;;;;;3.50;100.00;99805.81;2099347;28;20178;-76
2022/04/30 02:59:53;;;;;;;52.85;37.25;;;;;;;3.49;100.00;99809.47;2099210;28;20290;-75
2022/04/30 03:00:21;;;;;;;58.97;35.35;;;;;;;3.42;100.00;99807.97;2099000;28;20170;-75
2022/04/30 03:01:54;;;;;;;52.35;35.50;;;;;;;3.38;100.00;99803.16;2098859;28;20292;-76
2022/04/30 03:03:23;;;;;;;51.58;34.20;;;;;;;3.36;100.00;99804.41;2093900;28;20201;-75
2022/04/30 03:04:25;;;;;;;46.15;34.60;;;;;;;3.33;100.00;99804.88;2098657;28;20197;-75
2022/04/30 03:05:26;;;;;;;54.83;33.13;;;;;;;3.27;100.00;99801.31;2099205;28;20645;-75
2022/04/30 03:06:27;;;;;;;47.08;32.60;;;;;;;3.24;100.00;99801.78;2098178;28;20723;-75
2022/04/30 03:07:29;;;;;;;52.23;33.70;;;;;;;3.21;100.00;99802.22;2098718;28;20553;-76
2022/04/30 03:08:29;;;;;;;50.97;34.92;;;;;;;3.20;100.00;99799.84;2099210;28;20240;-76
2022/04/30 03:09:32;;;;;;;53.23;36.67;;;;;;;3.21;100.00;99812.78;2098527;28;20190;-75
2022/04/30 03:10:35;;;;;;;58.22;35.60;;;;;;;3.15;100.00;99803.19;2098549;28;20197;-76
2022/04/30 03:11:37;;;;;;;57.42;37.70;;;;;;;3.18;100.00;99805.34;2099119;28;20186;-75
2022/04/30 03:12:37;;;;;;;53.97;33.83;;;;;;;3.19;100.00;99806.13;2099291;28;20202;-76
2022/04/30 03:13:39;;;;;;;55.40;36.43;;;;;;;3.19;100.00;99806.13;2099117;28;20241;-76
2022/04/30 03:14:41;;;;;;;61.65;39.03;;;;;;;3.21;100.00;99812.78;2098421;28;20201;-75
2022/04/30 03:15:44;;;;;;;63.28;39.15;;;;;;;3.20;100.00;99803.28;2098760;28;20183;-75
2022/04/30 03:22:26;;;;;;;69.38;41.03;;;;;;;3.19;100.00;99812.22;2073434;28;20295;-75
2022/04/30 03:23:28;;;;;;;62.88;40.65;;;;;;;3.20;100.00;99811.19;2073634;28;20187;-75
2022/04/30 03:24:31;;;;;;;64.90;39.72;;;;;;;3.19;100.00;99817.50;2065262;28;20208;-76
2022/04/30 03:25:34;;;;;;;65.97;41.28;;;;;;;3.18;100.00;99815.88;2065998;28;20201;-75
2022/04/30 03:26:36;;;;;;;64.18;41.08;;;;;;;3.17;100.00;99811.66;2073675;28;20197;-75
2022/04/30 03:27:38;;;;;;;66.80;41.63;;;;;;;3.15;100.00;99816.34;2065292;28;20212;-76
2022/04/30 03:28:40;;;;;;;63.90;41.85;;;;;;;3.14;100.00;99811.31;2096320;28;20229;-75
2022/04/30 03:29:42;;;;;;;61.13;41.25;;;;;;;3.15;100.00;99816.34;2099240;28;20183;-75
2022/04/30 03:30:47;;;;;;;67.88;42.65;;;;;;;3.15;100.00;99816.34;2098517;28;20697;-75
2022/04/30 03:31:50;;;;;;;66.03;42.30;;;;;;;3.16;100.00;99811.88;2090541;28;20210;-76
2022/04/30 03:32:50;;;;;;;58.53;40.58;;;;;;;3.19;100.00;99814.84;2090188;28;20285;-75
2022/04/30 03:33:53;;;;;;;59.93;39.73;;;;;;;3.17;100.00;99819.56;2098712;28;20237;-75
2022/04/30 03:34:53;;;;;;;64.82;41.53;;;;;;;3.15;100.00;99813.72;2099236;28;20263;-75
2022/04/30 03:35:56;;;;;;;62.93;41.20;;;;;;;3.14;100.00;99817.38;2098854;28;20186;-75
2022/04/30 03:36:59;;;;;;;68.07;41.00;;;;;;;3.15;100.00;99813.72;2099008;28;20257;-75
2022/04/30 03:38:03;;;;;;;63.22;41.00;;;;;;;3.13;100.00;99810.50;2097725;28;20705;-75
2022/04/30 03:39:04;;;;;;;64.38;42.83;;;;;;;3.11;100.00;99812.56;2098671;28;20182;-75
2022/04/30 03:40:06;;;;;;;65.10;41.60;;;;;;;3.10;100.00;99808.31;2098967;28;20543;-75
2022/04/30 03:41:09;;;;;;;64.45;42.28;;;;;;;3.10;100.00;99817.03;2098228;28;20198;-76
2022/04/30 03:42:10;;;;;;;67.70;42.63;;;;;;;3.14;100.00;99811.31;2098346;28;20182;-75
2022/04/30 03:43:12;;;;;;;63.27;41.63;;;;;;;3.14;100.00;99813.94;2098894;28;20194;-75
2022/04/30 03:44:13;;;;;;;59.80;40.65;;;;;;;3.15;100.00;99820.81;2099056;28;20201;-76
2022/04/30 03:45:16;;;;;;;64.07;40.55;;;;;;;3.16;100.00;99811.88;2097889;28;20285;-76
2022/04/30 03:46:17;;;;;;;59.95;41.05;;;;;;;3.15;100.00;99808.44;2098331;28;20218;-75
2022/04/30 03:47:19;;;;;;;56.50;38.03;;;;;;;3.20;100.00;99818.28;2099107;28;20244;-75
2022/04/30 03:48:20;;;;;;;50.35;37.28;;;;;;;3.21;100.00;99817.25;2098851;28;20194;-75
2022/04/30 03:49:22;;;;;;;51.67;38.22;;;;;;;3.21;100.00;99812.78;2098808;28;20183;-76
2022/04/30 03:50:22;;;;;;;53.22;37.72;;;;;;;3.20;100.00;99805.09;2098935;28;20562;-75
2022/04/30 03:51:25;;;;;;;57.47;37.13;;;;;;;3.21;100.00;99817.25;2097737;28;20246;-75
2022/04/30 03:52:26;;;;;;;51.40;37.03;;;;;;;3.23;100.00;99809.94;2098379;28;20190;-75
2022/04/30 03:53:27;;;;;;;50.70;35.20;;;;;;;3.24;100.00;99812.34;2097816;28;20226;-75
2022/04/30 03:54:28;;;;;;;47.72;34.47;;;;;;;3.29;100.00;99809.81;2089890;28;20294;-75
2022/04/30 03:55:30;;;;;;;48.00;34.07;;;;;;;3.30;100.00;99815.88;2098229;28;20194;-75
2022/04/30 03:56:32;;;;;;;46.70;33.33;;;;;;;3.32;100.00;99819.13;2098879;28;20197;-75
2022/04/30 03:57:34;;;;;;;40.47;31.23;;;;;;;3.29;100.00;99812.44;2098739;28;20657;-75
2022/04/30 03:58:35;;;;;;;42.72;32.83;;;;;;;3.33;100.00;99818.88;2097759;28;20612;-75
2022/04/30 03:59:37;;;;;;;47.90;33.03;;;;;;;3.35;100.00;99818.66;2098255;28;20182;-76
2022/04/30 04:00:37;;;;;;;52.42;32.70;;;;;;;3.34;100.00;99820.47;2098992;28;20425;-75
2022/04/30 04:01:40;;;;;;;45.47;33.88;;;;;;;3.33;100.00;99807.53;2098811;28;20671;-75
2022/04/30 04:02:42;;;;;;;48.58;34.90;;;;;;;3.39;100.00;99815.34;2097732;28;20194;-76
2022/04/30 04:03:44;;;;;;;47.20;35.13;;;;;;;3.41;100.00;99820.38;2098223;28;20182;-75
2022/04/30 04:04:46;;;;;;;48.83;34.67;;;;;;;3.43;100.00;99814.88;2098749;28;20190;-75
2022/04/30 04:05:50;;;;;;;54.05;34.47;;;;;;;3.43;100.00;99807.75;2098804;28;20196;-75
2022/04/30 04:06:51;;;;;;;55.53;36.78;;;;;;;3.46;100.00;99820.47;2098494;28;20222;-75
2022/04/30 04:07:54;;;;;;;49.40;35.77;;;;;;;3.53;100.00;99820.34;2098751;28;20186;-75
2022/04/30 04:08:55;;;;;;;51.88;35.78;;;;;;;3.55;100.00;99818.28;2098774;28;20273;-76
2022/04/30 04:09:57;;;;;;;48.30;35.30;;;;;;;3.56;100.00;99815.44;2098109;28;20194;-76
2022/04/30 04:11:00;;;;;;;51.70;35.47;;;;;;;3.57;100.00;99817.03;2098083;28;20241;-75
2022/04/30 04:12:07;;;;;;;47.42;35.15;;;;;;;3.56;100.00;99810.16;2089701;28;20203;-76
2022/04/30 04:18:26;;;;;;;55.13;38.15;;;;;;;3.76;100.00;99812.41;2098298;28;20259;-75
2022/04/30 04:19:30;;;;;;;64.85;39.38;;;;;;;3.81;100.00;99811.69;2098174;28;20194;-75
2022/04/30 04:20:32;;;;;;;57.17;38.72;;;;;;;3.87;100.00;99814.22;2098418;28;20212;-75
2022/04/30 04:21:33;;;;;;;55.28;38.17;;;;;;;3.91;100.00;99817.22;2089588;28;20234;-75
2022/04/30 04:22:35;;;;;;;59.60;40.10;;;;;;;3.94;100.00;99822.00;2098048;28;20656;-75
2022/04/30 04:26:11;;;;;;;59.85;37.50;;;;;;;4.07;100.00;99820.94;2098038;28;20661;-75
2022/04/30 04:27:17;;;;;;;59.20;37.95;;;;;;;4.08;100.00;99823.34;2097968;28;20198;-75
2022/04/30 04:28:18;;;;;;;60.28;37.80;;;;;;;4.12;100.00;99823.69;2098362;28;20227;-75
2022/04/30 04:29:19;;;;;;;61.92;38.60;;;;;;;4.15;100.00;99823.22;2098653;28;20190;-76
2022/04/30 04:30:21;;;;;;;53.08;37.97;;;;;;;4.17;100.00;99816.69;2098019;28;20198;-75
2022/04/30 04:31:23;;;;;;;53.80;37.40;;;;;;;4.19;100.00;99821.72;2089351;28;20218;-75
2022/04/30 04:32:24;;;;;;;53.13;36.65;;;;;;;4.24;100.00;99822.59;2097971;28;20226;-75
2022/04/30 04:33:27;;;;;;;54.53;38.35;;;;;;;4.28;100.00;99825.59;2098849;28;20559;-75
2022/04/30 04:34:28;;;;;;;57.50;38.53;;;;;;;4.36;100.00;99817.28;2098007;28;20202;-76
2022/04/30 04:35:32;;;;;;;52.80;38.07;;;;;;;4.38;100.00;99817.84;2098269;28;20193;-75
2022/04/30 04:36:33;;;;;;;66.07;40.42;;;;;;;4.43;100.00;99819.75;2098419;28;20217;-76
2022/04/30 04:37:35;;;;;;;57.53;39.93;;;;;;;4.44;100.00;99816.91;2098777;28;20214;-76
2022/04/30 04:38:36;;;;;;;54.70;38.72;;;;;;;4.51;100.00;99819.38;2097964;28;20190;-76
2022/04/30 04:39:40;;;;;;;61.40;39.57;;;;;;;4.54;100.00;99822.38;2098082;28;20278;-76
2022/04/30 04:40:42;;;;;;;55.28;39.53;;;;;;;4.59;100.00;99823.47;2098625;28;20190;-76
2022/04/30 04:41:45;;;;;;;64.35;39.78;;;;;;;4.60;100.00;99823.25;2098928;28;20192;-76
2022/04/30 04:42:47;;;;;;;57.60;39.90;;;;;;;4.65;100.00;99828.63;2098672;28;20198;-76
2022/04/30 04:43:49;;;;;;;59.70;39.40;;;;;;;4.70;100.00;99827.94;2098653;28;20194;-75
2022/04/30 04:44:50;;;;;;;54.90;39.42;;;;;;;4.73;100.00;99827.44;2098744;28;20192;-76
2022/04/30 04:45:51;;;;;;;63.90;39.25;;;;;;;4.76;100.00;99827.75;2098851;28;20289;-75
2022/04/30 04:46:53;;;;;;;56.07;38.87;;;;;;;4.76;100.00;99832.25;2098972;28;20303;-75
2022/04/30 04:47:55;;;;;;;52.35;38.80;;;;;;;4.81;100.00;99827.06;2098609;28;20197;-76
2022/04/30 04:48:59;;;;;;;58.17;39.58;;;;;;;4.92;100.00;99831.47;2098651;28;20200;-76
2022/04/30 04:50:01;;;;;;;58.60;38.60;;;;;;;5.00;100.00;99831.06;2098062;28;20230;-75
2022/04/30 04:51:02;;;;;;;57.97;38.67;;;;;;;5.03;100.00;99827.94;2097435;28;20680;-76
2022/04/30 04:52:05;;;;;;;59.45;39.80;;;;;;;5.09;100.00;99826.19;2098826;28;20163;-75
2022/04/30 04:53:05;;;;;;;57.95;39.45;;;;;;;5.13;100.00;99827.31;2098689;28;20198;-75
2022/04/30 04:54:08;;;;;;;55.00;38.53;;;;;;;5.18;100.00;99830.03;2098833;28;20211;-76
2022/04/30 04:55:10;;;;;;;61.17;40.40;;;;;;;5.22;100.00;99822.41;2098920;28;20289;-75
2022/04/30 04:56:12;;;;;;;52.40;39.28;;;;;;;5.27;100.00;99820.63;2097461;28;20195;-75
2022/04/30 04:57:12;;;;;;;54.25;38.45;;;;;;;5.32;100.00;99822.56;2097969;28;20661;-76
2022/04/30 04:58:16;;;;;;;59.97;39.80;;;;;;;5.33;100.00;99818.88;2098588;28;20595;-75
2022/04/30 04:59:17;;;;;;;57.10;38.97;;;;;;;5.34;100.00;99821.28;2098539;28;20190;-76
2022/04/30 05:00:18;;;;;;;57.80;40.75;;;;;;;5.38;100.00;99816.28;2097825;28;20257;-76
2022/04/30 05:01:21;;;;;;;52.70;37.10;;;;;;;5.43;100.00;99815.56;2097825;28;20277;-76
2022/04/30 05:02:22;;;;;;;51.60;37.85;;;;;;;5.50;100.00;99814.34;2097896;28;20214;-76
2022/04/30 05:03:25;;;;;;;61.07;39.17;;;;;;;5.53;100.00;99816.50;2098525;28;20194;-76
2022/04/30 05:04:26;;;;;;;55.05;38.17;;;;;;;5.56;100.00;99818.69;2098638;28;20432;-76
2022/04/30 05:05:28;;;;;;;66.00;38.70;;;;;;;5.58;100.00;99819.22;2097464;28;20622;-76
2022/04/30 05:06:28;;;;;;;60.15;40.38;;;;;;;5.63;100.00;99819.28;2089137;28;20229;-76
2022/04/30 05:07:30;;;;;;;54.17;39.23;;;;;;;5.67;100.00;99823.06;2098017;28;20214;-76
2022/04/30 05:08:33;;;;;;;53.55;39.58;;;;;;;5.71;100.00;99822.56;2097829;28;20194;-76
2022/04/30 05:09:39;;;;;;;62.22;40.60;;;;;;;5.72;100.00;99822.31;2089764;28;20673;-76
2022/04/30 05:10:40;;;;;;;58.33;39.40;;;;;;;5.87;100.00;99821.72;2098077;28;20174;-76
2022/04/30 05:11:42;;;;;;;57.43;39.50;;;;;;;5.96;100.00;99812.31;2097798;28;20210;-76